Hillsdale, WY

10:41 AM MDT on May 25, 2015 (GMT -0600)
WB7GR | | Change Station
CLOSE
Current Station
Personal Weather Station
Location: Burns, WY
Elevation: 5788 ft
Nearby Weather Stations

Elev 5788 ft 41.15 °N, 104.54 °W | Updated 2 minutes ago

Rain
Rain
48.1 °F
Feels Like 42 °F
N
15.0
Wind Variable Wind from NW
Gusts 15.0 mph

Today
High -- | Low -- °F
--% Chance of Precip.
Yesterday
High -- | Low -- °F
Precip. -- in
5:31 AM 8:18 PM
Waxing Crescent, 50% visible
Pressure 29.92 in
Visibility 10.0 miles
Clouds Scattered Clouds 2100 ft
Mostly Cloudy 2800 ft
Overcast 4800 ft
Windchill 42 °F
Dew Point 45 °F
Humidity 90%
Rainfall in
Snow Depth Not available.
UV 3 out of 12
Pollen 4.70 out of 12
Air Quality Not available.
Flu Activity Sporadic
SPECI KCYS 251626Z 32013G19KT 10SM SCT021 BKN028 OVC048 11/05 A2992 RMK AO2 RAB08E24 P0000 T01060050

More Conditions Fewer Conditions

Pressure 29.92 in
Visibility 10.0 miles
Clouds Scattered Clouds 2100 ft
Mostly Cloudy 2800 ft
Overcast 4800 ft
Windchill 42 °F
Dew Point 45 °F
Humidity 90%
Rainfall in
Snow Depth Not available.
UV 3 out of 12
Pollen 4.70 out of 12
Air Quality Not available.
Flu Activity Sporadic
SPECI KCYS 251626Z 32013G19KT 10SM SCT021 BKN028 OVC048 11/05 A2992 RMK AO2 RAB08E24 P0000 T01060050

More Conditions Fewer Conditions

10-Day Weather Forecast

Almanac

Astronomy

May. 25, 2015 Rise Set
Actual Time
Civil Twilight
Nautical Twilight
Astronomical Twilight
Moon
Length of Visible Light
Length of Day
Tomorrow will be .
, % of the Moon is Illuminated

Today's Extremes

State Highs State Lows

Community

WunderPhotos

Upload Photos

1,824,057 photos uploaded!

WunderBlogs® & News

Nearby

Air Quality

  Air Quality AQ Index Pollutant
Not available.

Snow Depth

Station Depth Elevation

Earthquake Activity

City Distance Mag. Time & Date
Minimum magnitude displayed is 2.5.

Coastal Water Temperatures

Place Temperature

Stations

Nearby Weather Stations

Station Location Temp. Windchill Dew Point Humidity Wind Precip. Elev Updated Type